sensor_id;sensor_type;location;lat;lon;timestamp;pressure;altitude;pressure_sealevel;temperature;humidity
72308;BME280;60257;42.638;23.376;2024-02-16T00:00:38;95199.16;;;1.79;75.00
72308;BME280;60257;42.638;23.376;2024-02-16T00:02:39;95191.06;;;1.74;75.20
72308;BME280;60257;42.638;23.376;2024-02-16T00:04:41;95191.06;;;1.74;75.54
72308;BME280;60257;42.638;23.376;2024-02-16T00:06:41;95190.03;;;1.70;75.43
72308;BME280;60257;42.638;23.376;2024-02-16T00:08:41;95187.91;;;1.62;75.24
72308;BME280;60257;42.638;23.376;2024-02-16T00:10:41;95193.00;;;1.63;75.14
72308;BME280;60257;42.638;23.376;2024-02-16T00:12:42;95184.38;;;1.61;75.23
72308;BME280;60257;42.638;23.376;2024-02-16T00:14:43;95186.78;;;1.63;74.90
72308;BME280;60257;42.638;23.376;2024-02-16T00:16:47;95180.88;;;1.61;75.23
72308;BME280;60257;42.638;23.376;2024-02-16T00:18:47;95185.47;;;1.60;75.42
72308;BME280;60257;42.638;23.376;2024-02-16T00:20:48;95176.59;;;1.49;75.79
72308;BME280;60257;42.638;23.376;2024-02-16T00:22:48;95198.22;;;1.49;76.45
72308;BME280;60257;42.638;23.376;2024-02-16T00:24:49;95189.03;;;1.50;76.34
72308;BME280;60257;42.638;23.376;2024-02-16T00:26:49;95189.06;;;1.45;76.18
72308;BME280;60257;42.638;23.376;2024-02-16T00:28:50;95195.22;;;1.51;76.33
72308;BME280;60257;42.638;23.376;2024-02-16T00:30:50;95194.13;;;1.57;75.93
72308;BME280;60257;42.638;23.376;2024-02-16T00:32:50;95192.22;;;1.58;75.57
72308;BME280;60257;42.638;23.376;2024-02-16T00:34:51;95194.13;;;1.62;75.69
72308;BME280;60257;42.638;23.376;2024-02-16T00:36:54;95194.94;;;1.58;75.78
72308;BME280;60257;42.638;23.376;2024-02-16T00:38:56;95189.56;;;1.47;76.08
72308;BME280;60257;42.638;23.376;2024-02-16T00:40:56;95194.44;;;1.50;75.69
72308;BME280;60257;42.638;23.376;2024-02-16T00:42:57;95190.94;;;1.40;75.85
72308;BME280;60257;42.638;23.376;2024-02-16T00:44:57;95196.69;;;1.28;76.40
72308;BME280;60257;42.638;23.376;2024-02-16T00:47:00;95189.69;;;1.22;77.10
72308;BME280;60257;42.638;23.376;2024-02-16T00:49:00;95196.97;;;1.22;77.04
72308;BME280;60257;42.638;23.376;2024-02-16T00:51:01;95188.63;;;1.13;77.27
72308;BME280;60257;42.638;23.376;2024-02-16T00:53:01;95191.03;;;1.20;77.53
72308;BME280;60257;42.638;23.376;2024-02-16T00:55:01;95195.91;;;1.23;77.30
72308;BME280;60257;42.638;23.376;2024-02-16T00:57:04;95186.75;;;1.13;77.31
72308;BME280;60257;42.638;23.376;2024-02-16T00:59:04;95198.88;;;1.21;76.85
72308;BME280;60257;42.638;23.376;2024-02-16T01:01:05;95201.56;;;1.21;76.95
72308;BME280;60257;42.638;23.376;2024-02-16T01:03:07;95206.13;;;1.26;76.58
72308;BME280;60257;42.638;23.376;2024-02-16T01:05:07;95201.56;;;1.21;77.00
72308;BME280;60257;42.638;23.376;2024-02-16T01:07:10;95200.22;;;1.24;76.91
72308;BME280;60257;42.638;23.376;2024-02-16T01:09:10;95195.59;;;1.24;77.04
72308;BME280;60257;42.638;23.376;2024-02-16T01:11:13;95190.19;;;1.24;77.22
72308;BME280;60257;42.638;23.376;2024-02-16T01:13:13;95188.34;;;1.20;77.51
72308;BME280;60257;42.638;23.376;2024-02-16T01:15:14;95195.66;;;1.14;77.87
72308;BME280;60257;42.638;23.376;2024-02-16T01:17:14;95193.50;;;1.11;77.63
72308;BME280;60257;42.638;23.376;2024-02-16T01:19:14;95196.22;;;0.96;78.13
72308;BME280;60257;42.638;23.376;2024-02-16T01:21:15;95197.56;;;0.93;78.26
72308;BME280;60257;42.638;23.376;2024-02-16T01:23:15;95189.22;;;0.90;78.52
72308;BME280;60257;42.638;23.376;2024-02-16T01:25:15;95190.03;;;0.95;78.25
72308;BME280;60257;42.638;23.376;2024-02-16T01:27:16;95190.28;;;0.94;78.49
72308;BME280;60257;42.638;23.376;2024-02-16T01:29:16;95188.69;;;0.93;78.59
72308;BME280;60257;42.638;23.376;2024-02-16T01:31:17;95190.28;;;0.94;78.63
72308;BME280;60257;42.638;23.376;2024-02-16T01:33:17;95185.69;;;1.04;78.26
72308;BME280;60257;42.638;23.376;2024-02-16T01:35:18;95185.69;;;1.04;78.50
72308;BME280;60257;42.638;23.376;2024-02-16T01:37:18;95182.47;;;0.97;78.60
72308;BME280;60257;42.638;23.376;2024-02-16T01:39:18;95186.50;;;0.95;78.60
72308;BME280;60257;42.638;23.376;2024-02-16T01:41:19;95184.91;;;0.89;78.94
72308;BME280;60257;42.638;23.376;2024-02-16T01:43:20;95188.72;;;0.83;78.40
72308;BME280;60257;42.638;23.376;2024-02-16T01:45:21;95180.03;;;0.86;77.80
72308;BME280;60257;42.638;23.376;2024-02-16T01:47:22;95189.25;;;0.80;77.98
72308;BME280;60257;42.638;23.376;2024-02-16T01:49:22;95173.88;;;0.75;78.14
72308;BME280;60257;42.638;23.376;2024-02-16T01:51:24;95179.00;;;0.76;78.31
72308;BME280;60257;42.638;23.376;2024-02-16T01:53:26;95177.09;;;0.72;78.89
72308;BME280;60257;42.638;23.376;2024-02-16T01:55:27;95175.78;;;0.69;78.93
72308;BME280;60257;42.638;23.376;2024-02-16T01:57:28;95176.34;;;0.61;79.11
72308;BME280;60257;42.638;23.376;2024-02-16T01:59:28;95177.94;;;0.62;79.44
72308;BME280;60257;42.638;23.376;2024-02-16T02:01:29;95177.69;;;0.54;78.52
72308;BME280;60257;42.638;23.376;2024-02-16T02:03:30;95182.25;;;0.58;78.63
72308;BME280;60257;42.638;23.376;2024-02-16T02:05:31;95166.34;;;0.52;78.94
72308;BME280;60257;42.638;23.376;2024-02-16T02:07:32;95165.53;;;0.51;79.49
72308;BME280;60257;42.638;23.376;2024-02-16T02:09:33;95170.94;;;0.51;78.57
72308;BME280;60257;42.638;23.376;2024-02-16T02:11:33;95172.28;;;0.49;78.45
72308;BME280;60257;42.638;23.376;2024-02-16T02:13:34;95172.28;;;0.49;78.31
72308;BME280;60257;42.638;23.376;2024-02-16T02:15:34;95164.47;;;0.42;78.76
72308;BME280;60257;42.638;23.376;2024-02-16T02:17:35;95169.88;;;0.42;78.67
72308;BME280;60257;42.638;23.376;2024-02-16T02:19:35;95165.00;;;0.39;78.95
72308;BME280;60257;42.638;23.376;2024-02-16T02:21:36;95175.78;;;0.39;78.78
72308;BME280;60257;42.638;23.376;2024-02-16T02:23:36;95171.75;;;0.36;79.05
72308;BME280;60257;42.638;23.376;2024-02-16T02:25:36;95167.97;;;0.43;78.44
72308;BME280;60257;42.638;23.376;2024-02-16T02:27:37;95166.91;;;0.44;78.33
72308;BME280;60257;42.638;23.376;2024-02-16T02:29:38;95168.25;;;0.41;79.09
72308;BME280;60257;42.638;23.376;2024-02-16T02:31:39;95166.34;;;0.42;77.98
72308;BME280;60257;42.638;23.376;2024-02-16T02:33:40;95172.00;;;0.40;77.82
72308;BME280;60257;42.638;23.376;2024-02-16T02:35:41;95168.81;;;0.38;78.29
72308;BME280;60257;42.638;23.376;2024-02-16T02:37:41;95171.75;;;0.42;77.90
72308;BME280;60257;42.638;23.376;2024-02-16T02:39:41;95175.00;;;0.44;77.77
72308;BME280;60257;42.638;23.376;2024-02-16T02:41:42;95170.69;;;0.43;77.92
72308;BME280;60257;42.638;23.376;2024-02-16T02:43:43;95175.53;;;0.46;78.06
72308;BME280;60257;42.638;23.376;2024-02-16T02:45:43;95179.06;;;0.46;78.28
72308;BME280;60257;42.638;23.376;2024-02-16T02:47:44;95178.25;;;0.46;78.12
72308;BME280;60257;42.638;23.376;2024-02-16T02:49:46;95173.09;;;0.44;78.06
72308;BME280;60257;42.638;23.376;2024-02-16T02:51:46;95167.97;;;0.43;78.99
72308;BME280;60257;42.638;23.376;2024-02-16T02:53:47;95171.50;;;0.38;79.01
72308;BME280;60257;42.638;23.376;2024-02-16T02:55:47;95168.78;;;0.43;78.90
72308;BME280;60257;42.638;23.376;2024-02-16T02:57:47;95171.72;;;0.47;78.10
72308;BME280;60257;42.638;23.376;2024-02-16T02:59:48;95177.16;;;0.52;77.85
72308;BME280;60257;42.638;23.376;2024-02-16T03:01:48;95166.91;;;0.44;77.39
72308;BME280;60257;42.638;23.376;2024-02-16T03:03:49;95178.22;;;0.51;77.38
72308;BME280;60257;42.638;23.376;2024-02-16T03:05:49;95175.78;;;0.49;77.82
72308;BME280;60257;42.638;23.376;2024-02-16T03:07:50;95163.66;;;0.42;77.62
72308;BME280;60257;42.638;23.376;2024-02-16T03:09:51;95174.69;;;0.55;77.46
72308;BME280;60257;42.638;23.376;2024-02-16T03:11:51;95186.03;;;0.57;77.70
72308;BME280;60257;42.638;23.376;2024-02-16T03:13:52;95178.22;;;0.56;77.69
72308;BME280;60257;42.638;23.376;2024-02-16T03:15:52;95177.13;;;0.57;77.79
72308;BME280;60257;42.638;23.376;2024-02-16T03:17:53;95178.47;;;0.54;78.04
72308;BME280;60257;42.638;23.376;2024-02-16T03:19:53;95175.50;;;0.56;78.01
72308;BME280;60257;42.638;23.376;2024-02-16T03:21:53;95172.56;;;0.52;78.41
72308;BME280;60257;42.638;23.376;2024-02-16T03:23:53;95171.22;;;0.50;78.46
72308;BME280;60257;42.638;23.376;2024-02-16T03:25:54;95167.97;;;0.43;78.74
72308;BME280;60257;42.638;23.376;2024-02-16T03:27:55;95176.63;;;0.45;78.53
72308;BME280;60257;42.638;23.376;2024-02-16T03:29:55;95165.28;;;0.43;79.00
72308;BME280;60257;42.638;23.376;2024-02-16T03:31:55;95170.16;;;0.46;78.38
72308;BME280;60257;42.638;23.376;2024-02-16T03:33:56;95179.59;;;0.43;78.76
72308;BME280;60257;42.638;23.376;2024-02-16T03:35:56;95176.88;;;0.43;78.85
72308;BME280;60257;42.638;23.376;2024-02-16T03:37:57;95176.91;;;0.38;78.05
72308;BME280;60257;42.638;23.376;2024-02-16T03:39:57;95175.28;;;0.37;77.85
72308;BME280;60257;42.638;23.376;2024-02-16T03:41:57;95175.00;;;0.33;78.27
72308;BME280;60257;42.638;23.376;2024-02-16T03:43:58;95184.44;;;0.36;78.29
72308;BME280;60257;42.638;23.376;2024-02-16T03:45:58;95183.38;;;0.37;78.21
72308;BME280;60257;42.638;23.376;2024-02-16T03:47:59;95181.72;;;0.41;78.46
72308;BME280;60257;42.638;23.376;2024-02-16T03:49:59;95180.94;;;0.46;78.17
72308;BME280;60257;42.638;23.376;2024-02-16T03:51:59;95177.97;;;0.52;77.35
72308;BME280;60257;42.638;23.376;2024-02-16T03:54:00;95175.50;;;0.56;77.21
72308;BME280;60257;42.638;23.376;2024-02-16T03:56:00;95182.25;;;0.58;77.48
72308;BME280;60257;42.638;23.376;2024-02-16T03:58:01;95176.88;;;0.58;77.24
72308;BME280;60257;42.638;23.376;2024-02-16T04:00:05;95179.31;;;0.60;77.52
72308;BME280;60257;42.638;23.376;2024-02-16T04:02:06;95177.41;;;0.55;77.25
72308;BME280;60257;42.638;23.376;2024-02-16T04:04:06;95172.00;;;0.50;77.73
72308;BME280;60257;42.638;23.376;2024-02-16T04:06:07;95177.94;;;0.57;77.68
72308;BME280;60257;42.638;23.376;2024-02-16T04:08:08;95176.06;;;0.53;77.69
72308;BME280;60257;42.638;23.376;2024-02-16T04:10:08;95179.31;;;0.50;78.40
72308;BME280;60257;42.638;23.376;2024-02-16T04:12:09;95182.81;;;0.45;78.46
72308;BME280;60257;42.638;23.376;2024-02-16T04:14:10;95182.00;;;0.39;78.69
72308;BME280;60257;42.638;23.376;2024-02-16T04:16:11;95175.25;;;0.32;78.91
72308;BME280;60257;42.638;23.376;2024-02-16T04:18:11;95183.63;;;0.35;79.13
72308;BME280;60257;42.638;23.376;2024-02-16T04:20:14;95172.03;;;0.35;78.77
72308;BME280;60257;42.638;23.376;2024-02-16T04:22:15;95176.06;;;0.43;78.61
72308;BME280;60257;42.638;23.376;2024-02-16T04:24:15;95177.41;;;0.40;79.49
72308;BME280;60257;42.638;23.376;2024-02-16T04:26:15;95179.56;;;0.33;79.45
72308;BME280;60257;42.638;23.376;2024-02-16T04:28:16;95176.91;;;0.38;79.42
72308;BME280;60257;42.638;23.376;2024-02-16T04:30:18;95178.22;;;0.41;79.46
72308;BME280;60257;42.638;23.376;2024-02-16T04:32:18;95179.31;;;0.34;79.42
72308;BME280;60257;42.638;23.376;2024-02-16T04:34:19;95178.50;;;0.29;78.94
72308;BME280;60257;42.638;23.376;2024-02-16T04:36:19;95175.25;;;0.27;79.38
72308;BME280;60257;42.638;23.376;2024-02-16T04:38:19;95171.22;;;0.19;79.25
72308;BME280;60257;42.638;23.376;2024-02-16T04:40:20;95184.16;;;0.17;79.41
72308;BME280;60257;42.638;23.376;2024-02-16T04:42:20;95182.00;;;0.14;79.69
72308;BME280;60257;42.638;23.376;2024-02-16T04:44:20;95187.66;;;0.13;79.81
72308;BME280;60257;42.638;23.376;2024-02-16T04:46:21;95180.94;;;0.15;79.90
72308;BME280;60257;42.638;23.376;2024-02-16T04:48:21;95181.47;;;0.17;80.36
72308;BME280;60257;42.638;23.376;2024-02-16T04:50:22;95198.47;;;0.13;80.11
72308;BME280;60257;42.638;23.376;2024-02-16T04:52:22;95186.06;;;0.07;80.64
72308;BME280;60257;42.638;23.376;2024-02-16T04:54:23;95190.91;;;0.05;80.06
72308;BME280;60257;42.638;23.376;2024-02-16T04:56:23;95190.09;;;0.04;79.37
72308;BME280;60257;42.638;23.376;2024-02-16T04:58:24;95190.63;;;0.06;79.35
72308;BME280;60257;42.638;23.376;2024-02-16T05:00:24;95197.09;;;0.00;79.96
72308;BME280;60257;42.638;23.376;2024-02-16T05:02:24;95196.56;;;0.03;80.26
72308;BME280;60257;42.638;23.376;2024-02-16T05:04:25;95198.72;;;0.06;79.71
72308;BME280;60257;42.638;23.376;2024-02-16T05:06:25;95195.50;;;-0.01;80.09
72308;BME280;60257;42.638;23.376;2024-02-16T05:08:25;95201.66;;;-0.06;80.18
72308;BME280;60257;42.638;23.376;2024-02-16T05:10:26;95202.50;;;0.00;80.40
72308;BME280;60257;42.638;23.376;2024-02-16T05:12:26;95201.94;;;-0.02;80.27
72308;BME280;60257;42.638;23.376;2024-02-16T05:14:27;95219.47;;;-0.05;80.71
72308;BME280;60257;42.638;23.376;2024-02-16T05:16:28;95212.75;;;-0.02;80.73
72308;BME280;60257;42.638;23.376;2024-02-16T05:18:28;95210.00;;;-0.07;80.75
72308;BME280;60257;42.638;23.376;2024-02-16T05:20:29;95220.00;;;-0.03;80.68
72308;BME280;60257;42.638;23.376;2024-02-16T05:22:29;95218.38;;;-0.04;80.85
72308;BME280;60257;42.638;23.376;2024-02-16T05:24:29;95216.47;;;-0.13;80.24
72308;BME280;60257;42.638;23.376;2024-02-16T05:26:30;95229.69;;;-0.12;80.17
72308;BME280;60257;42.638;23.376;2024-02-16T05:28:30;95224.59;;;-0.08;80.19
72308;BME280;60257;42.638;23.376;2024-02-16T05:30:31;95230.00;;;-0.03;80.67
72308;BME280;60257;42.638;23.376;2024-02-16T05:32:31;95221.09;;;-0.04;80.49
72308;BME280;60257;42.638;23.376;2024-02-16T05:34:32;95222.41;;;-0.06;80.18
72308;BME280;60257;42.638;23.376;2024-02-16T05:36:37;95224.34;;;-0.02;79.97
72308;BME280;60257;42.638;23.376;2024-02-16T05:38:38;95221.13;;;0.07;79.94
72308;BME280;60257;42.638;23.376;2024-02-16T05:40:43;95235.13;;;0.09;79.51
72308;BME280;60257;42.638;23.376;2024-02-16T05:42:54;95231.09;;;0.06;80.00
72308;BME280;60257;42.638;23.376;2024-02-16T05:44:54;95222.75;;;0.08;79.71
72308;BME280;60257;42.638;23.376;2024-02-16T05:46:55;95235.13;;;0.09;80.19
72308;BME280;60257;42.638;23.376;2024-02-16T05:48:55;95231.59;;;0.08;79.94
72308;BME280;60257;42.638;23.376;2024-02-16T05:51:00;95228.66;;;0.10;80.13
72308;BME280;60257;42.638;23.376;2024-02-16T05:53:01;95231.63;;;0.13;79.88
72308;BME280;60257;42.638;23.376;2024-02-16T05:55:01;95235.66;;;0.16;79.70
72308;BME280;60257;42.638;23.376;2024-02-16T05:57:01;95233.81;;;0.21;79.25
72308;BME280;60257;42.638;23.376;2024-02-16T05:59:04;95232.72;;;0.27;79.22
72308;BME280;60257;42.638;23.376;2024-02-16T06:01:05;95230.31;;;0.31;79.55
72308;BME280;60257;42.638;23.376;2024-02-16T06:03:06;95241.63;;;0.33;79.50
72308;BME280;60257;42.638;23.376;2024-02-16T06:05:07;95245.41;;;0.37;79.85
72308;BME280;60257;42.638;23.376;2024-02-16T06:07:07;95234.06;;;0.40;80.40
72308;BME280;60257;42.638;23.376;2024-02-16T06:09:08;95246.47;;;0.41;80.33
72308;BME280;60257;42.638;23.376;2024-02-16T06:11:09;95245.16;;;0.44;80.38
72308;BME280;60257;42.638;23.376;2024-02-16T06:13:09;95242.19;;;0.50;80.37
72308;BME280;60257;42.638;23.376;2024-02-16T06:15:09;95253.50;;;0.57;80.30
72308;BME280;60257;42.638;23.376;2024-02-16T06:17:10;95247.84;;;0.54;80.32
72308;BME280;60257;42.638;23.376;2024-02-16T06:19:10;95245.16;;;0.59;80.34
72308;BME280;60257;42.638;23.376;2024-02-16T06:21:10;95247.31;;;0.67;80.19
72308;BME280;60257;42.638;23.376;2024-02-16T06:23:11;95250.00;;;0.77;79.36
72308;BME280;60257;42.638;23.376;2024-02-16T06:25:11;95245.13;;;0.79;78.91
72308;BME280;60257;42.638;23.376;2024-02-16T06:27:12;95244.56;;;0.87;78.81
72308;BME280;60257;42.638;23.376;2024-02-16T06:29:12;95252.41;;;0.94;78.78
72308;BME280;60257;42.638;23.376;2024-02-16T06:31:14;95251.06;;;0.96;78.91
72308;BME280;60257;42.638;23.376;2024-02-16T06:33:14;95249.94;;;1.02;79.14
72308;BME280;60257;42.638;23.376;2024-02-16T06:35:15;95254.25;;;1.08;78.94
72308;BME280;60257;42.638;23.376;2024-02-16T06:37:15;95243.72;;;1.12;78.16
72308;BME280;60257;42.638;23.376;2024-02-16T06:39:17;95248.28;;;1.16;77.21
72308;BME280;60257;42.638;23.376;2024-02-16T06:41:18;95240.19;;;1.22;77.31
72308;BME280;60257;42.638;23.376;2024-02-16T06:43:18;95244.78;;;1.26;77.44
72308;BME280;60257;42.638;23.376;2024-02-16T06:45:19;95243.66;;;1.32;77.05
72308;BME280;60257;42.638;23.376;2024-02-16T06:47:20;95240.69;;;1.39;76.51
72308;BME280;60257;42.638;23.376;2024-02-16T06:49:20;95242.56;;;1.43;76.40
72308;BME280;60257;42.638;23.376;2024-02-16T06:51:21;95230.44;;;1.36;76.27
72308;BME280;60257;42.638;23.376;2024-02-16T06:53:21;95247.94;;;1.48;76.22
72308;BME280;60257;42.638;23.376;2024-02-16T06:55:21;95234.44;;;1.53;75.84
72308;BME280;60257;42.638;23.376;2024-02-16T06:57:22;95238.44;;;1.56;75.27
72308;BME280;60257;42.638;23.376;2024-02-16T06:59:22;95246.00;;;1.64;75.29
72308;BME280;60257;42.638;23.376;2024-02-16T07:01:23;95239.78;;;1.69;75.35
72308;BME280;60257;42.638;23.376;2024-02-16T07:03:23;95241.91;;;1.77;74.82
72308;BME280;60257;42.638;23.376;2024-02-16T07:05:24;95241.81;;;1.87;75.02
72308;BME280;60257;42.638;23.376;2024-02-16T07:07:24;95242.31;;;1.94;74.64
72308;BME280;60257;42.638;23.376;2024-02-16T07:09:24;95253.38;;;2.03;74.85
72308;BME280;60257;42.638;23.376;2024-02-16T07:11:25;95250.66;;;2.08;74.77
72308;BME280;60257;42.638;23.376;2024-02-16T07:13:25;95243.03;;;2.15;74.40
72308;BME280;60257;42.638;23.376;2024-02-16T07:15:25;95249.19;;;2.25;73.89
72308;BME280;60257;42.638;23.376;2024-02-16T07:17:26;95245.38;;;2.31;73.23
72308;BME280;60257;42.638;23.376;2024-02-16T07:19:27;95247.19;;;2.41;72.43
72308;BME280;60257;42.638;23.376;2024-02-16T07:21:28;95245.28;;;2.47;72.21
72308;BME280;60257;42.638;23.376;2024-02-16T07:23:29;95237.34;;;2.55;71.81
72308;BME280;60257;42.638;23.376;2024-02-16T07:25:29;95237.25;;;2.65;71.97
72308;BME280;60257;42.638;23.376;2024-02-16T07:27:30;95238.81;;;2.71;71.52
72308;BME280;60257;42.638;23.376;2024-02-16T07:29:30;95237.41;;;2.79;71.95
72308;BME280;60257;42.638;23.376;2024-02-16T07:31:34;95236.50;;;2.89;70.76
72308;BME280;60257;42.638;23.376;2024-02-16T07:33:35;95239.69;;;2.96;69.87
72308;BME280;60257;42.638;23.376;2024-02-16T07:35:36;95242.31;;;3.06;70.42
72308;BME280;60257;42.638;23.376;2024-02-16T07:37:38;95244.94;;;3.16;70.43
72308;BME280;60257;42.638;23.376;2024-02-16T07:39:38;95241.16;;;3.17;69.37
72308;BME280;60257;42.638;23.376;2024-02-16T07:41:39;95242.41;;;3.25;69.80
72308;BME280;60257;42.638;23.376;2024-02-16T07:43:39;95245.69;;;3.22;69.61
72308;BME280;60257;42.638;23.376;2024-02-16T07:45:40;95241.84;;;3.28;69.22
72308;BME280;60257;42.638;23.376;2024-02-16T07:47:41;95243.69;;;3.32;69.11
72308;BME280;60257;42.638;23.376;2024-02-16T07:49:41;95239.53;;;3.40;68.96
72308;BME280;60257;42.638;23.376;2024-02-16T07:51:42;95243.81;;;3.46;68.48
72308;BME280;60257;42.638;23.376;2024-02-16T07:53:42;95243.47;;;3.53;68.30
72308;BME280;60257;42.638;23.376;2024-02-16T07:55:44;95245.25;;;3.62;67.95
72308;BME280;60257;42.638;23.376;2024-02-16T07:57:45;95240.81;;;3.71;68.27
72308;BME280;60257;42.638;23.376;2024-02-16T07:59:45;95240.97;;;3.80;67.93
72308;BME280;60257;42.638;23.376;2024-02-16T08:01:45;95249.25;;;3.88;68.10
72308;BME280;60257;42.638;23.376;2024-02-16T08:03:46;95253.56;;;3.95;67.81
72308;BME280;60257;42.638;23.376;2024-02-16T08:05:46;95249.03;;;4.09;67.77
72308;BME280;60257;42.638;23.376;2024-02-16T08:07:47;95245.03;;;4.20;67.41
72308;BME280;60257;42.638;23.376;2024-02-16T08:09:47;95241.69;;;4.28;67.16
72308;BME280;60257;42.638;23.376;2024-02-16T08:11:48;95251.38;;;4.34;66.91
72308;BME280;60257;42.638;23.376;2024-02-16T08:13:49;95252.59;;;4.42;67.00
72308;BME280;60257;42.638;23.376;2024-02-16T08:15:49;95231.25;;;4.35;66.22
72308;BME280;60257;42.638;23.376;2024-02-16T08:17:52;95248.94;;;4.51;66.15
72308;BME280;60257;42.638;23.376;2024-02-16T08:19:53;95249.09;;;4.60;66.03
72308;BME280;60257;42.638;23.376;2024-02-16T08:21:56;95241.59;;;4.71;65.86
72308;BME280;60257;42.638;23.376;2024-02-16T08:23:56;95249.66;;;4.76;65.40
72308;BME280;60257;42.638;23.376;2024-02-16T08:25:57;95251.94;;;4.87;65.15
72308;BME280;60257;42.638;23.376;2024-02-16T08:27:58;95246.91;;;4.94;65.08
72308;BME280;60257;42.638;23.376;2024-02-16T08:29:58;95239.66;;;5.03;64.57
72308;BME280;60257;42.638;23.376;2024-02-16T08:31:59;95243.63;;;5.11;64.42
72308;BME280;60257;42.638;23.376;2024-02-16T08:33:59;95241.63;;;5.17;63.80
72308;BME280;60257;42.638;23.376;2024-02-16T08:35:59;95251.03;;;5.24;64.22
72308;BME280;60257;42.638;23.376;2024-02-16T08:38:00;95244.91;;;5.32;63.58
72308;BME280;60257;42.638;23.376;2024-02-16T08:40:01;95252.66;;;5.39;62.89
72308;BME280;60257;42.638;23.376;2024-02-16T08:42:01;95246.81;;;5.46;62.37
72308;BME280;60257;42.638;23.376;2024-02-16T08:44:03;95247.53;;;5.51;62.00
72308;BME280;60257;42.638;23.376;2024-02-16T08:46:04;95248.03;;;5.53;61.79
72308;BME280;60257;42.638;23.376;2024-02-16T08:48:04;95237.66;;;5.55;61.93
72308;BME280;60257;42.638;23.376;2024-02-16T08:50:05;95231.13;;;5.56;61.60
72308;BME280;60257;42.638;23.376;2024-02-16T08:52:06;95236.97;;;5.63;61.78
72308;BME280;60257;42.638;23.376;2024-02-16T08:54:06;95240.91;;;5.71;61.89
72308;BME280;60257;42.638;23.376;2024-02-16T08:56:10;95236.16;;;5.76;62.28
72308;BME280;60257;42.638;23.376;2024-02-16T08:58:13;95242.50;;;5.86;62.44
72308;BME280;60257;42.638;23.376;2024-02-16T09:00:14;95243.53;;;5.90;61.54
72308;BME280;60257;42.638;23.376;2024-02-16T09:02:16;95243.13;;;5.96;61.85
72308;BME280;60257;42.638;23.376;2024-02-16T09:04:16;95241.94;;;6.02;62.36
72308;BME280;60257;42.638;23.376;2024-02-16T09:06:16;95250.19;;;6.11;61.66
72308;BME280;60257;42.638;23.376;2024-02-16T09:08:17;95244.94;;;6.14;61.26
72308;BME280;60257;42.638;23.376;2024-02-16T09:10:18;95248.03;;;6.22;61.43
72308;BME280;60257;42.638;23.376;2024-02-16T09:12:18;95248.56;;;6.24;61.07
72308;BME280;60257;42.638;23.376;2024-02-16T09:14:18;95251.78;;;6.26;61.37
72308;BME280;60257;42.638;23.376;2024-02-16T09:16:19;95252.19;;;6.33;61.73
72308;BME280;60257;42.638;23.376;2024-02-16T09:18:20;95252.44;;;6.45;60.92
72308;BME280;60257;42.638;23.376;2024-02-16T09:20:20;95252.13;;;6.46;60.28
72308;BME280;60257;42.638;23.376;2024-02-16T09:22:22;95250.72;;;6.49;60.28
72308;BME280;60257;42.638;23.376;2024-02-16T09:24:23;95255.25;;;6.53;59.40
72308;BME280;60257;42.638;23.376;2024-02-16T09:26:25;95252.41;;;6.58;59.23
72308;BME280;60257;42.638;23.376;2024-02-16T09:28:30;95244.22;;;6.58;58.68
72308;BME280;60257;42.638;23.376;2024-02-16T09:30:30;95257.13;;;6.67;58.46
72308;BME280;60257;42.638;23.376;2024-02-16T09:32:32;95254.00;;;6.73;58.52
72308;BME280;60257;42.638;23.376;2024-02-16T09:34:32;95259.91;;;6.75;58.53
72308;BME280;60257;42.638;23.376;2024-02-16T09:36:33;95253.66;;;6.75;58.63
72308;BME280;60257;42.638;23.376;2024-02-16T09:38:35;95246.13;;;6.72;58.75
72308;BME280;60257;42.638;23.376;2024-02-16T09:40:36;95245.47;;;6.75;58.81
72308;BME280;60257;42.638;23.376;2024-02-16T09:42:38;95256.28;;;6.80;58.85
72308;BME280;60257;42.638;23.376;2024-02-16T09:44:39;95255.53;;;6.88;59.12
72308;BME280;60257;42.638;23.376;2024-02-16T09:46:39;95251.56;;;6.94;58.46
72308;BME280;60257;42.638;23.376;2024-02-16T09:48:40;95258.22;;;7.02;58.13
72308;BME280;60257;42.638;23.376;2024-02-16T09:50:41;95244.75;;;7.05;58.26
72308;BME280;60257;42.638;23.376;2024-02-16T09:52:47;95247.06;;;7.12;58.58
72308;BME280;60257;42.638;23.376;2024-02-16T09:54:47;95242.41;;;7.12;58.67
72308;BME280;60257;42.638;23.376;2024-02-16T09:56:48;95247.44;;;7.19;57.61
72308;BME280;60257;42.638;23.376;2024-02-16T09:58:48;95239.91;;;7.24;57.42
72308;BME280;60257;42.638;23.376;2024-02-16T10:00:53;95236.44;;;7.32;57.31
72308;BME280;60257;42.638;23.376;2024-02-16T10:02:53;95238.50;;;7.35;57.43
72308;BME280;60257;42.638;23.376;2024-02-16T10:04:53;95226.84;;;7.44;56.87
72308;BME280;60257;42.638;23.376;2024-02-16T10:06:54;95235.41;;;7.51;56.93
72308;BME280;60257;42.638;23.376;2024-02-16T10:08:55;95229.81;;;7.56;56.63
72308;BME280;60257;42.638;23.376;2024-02-16T10:11:04;95225.28;;;7.51;55.98
72308;BME280;60257;42.638;23.376;2024-02-16T10:13:05;95225.63;;;7.50;56.14
72308;BME280;60257;42.638;23.376;2024-02-16T10:15:06;95226.09;;;7.52;56.31
72308;BME280;60257;42.638;23.376;2024-02-16T10:17:06;95215.03;;;7.57;55.98
72308;BME280;60257;42.638;23.376;2024-02-16T10:19:09;95219.38;;;7.58;56.17
72308;BME280;60257;42.638;23.376;2024-02-16T10:21:12;95213.78;;;7.63;56.33
72308;BME280;60257;42.638;23.376;2024-02-16T10:23:12;95212.81;;;7.67;56.55
72308;BME280;60257;42.638;23.376;2024-02-16T10:25:13;95210.78;;;7.73;56.53
72308;BME280;60257;42.638;23.376;2024-02-16T10:27:15;95205.78;;;7.75;56.08
72308;BME280;60257;42.638;23.376;2024-02-16T10:29:21;95205.50;;;7.85;55.60
72308;BME280;60257;42.638;23.376;2024-02-16T10:31:25;95200.06;;;7.94;54.64
72308;BME280;60257;42.638;23.376;2024-02-16T10:33:31;95207.16;;;7.95;54.20
72308;BME280;60257;42.638;23.376;2024-02-16T10:35:36;95196.72;;;7.97;54.31
72308;BME280;60257;42.638;23.376;2024-02-16T10:37:37;95187.84;;;7.91;54.02
72308;BME280;60257;42.638;23.376;2024-02-16T10:39:37;95197.03;;;7.95;54.34